sensor_id;sensor_type;location;lat;lon;timestamp;pressure;altitude;pressure_sealevel;temperature;humidity
64713;BME280;51140;45.340;5.980;2022-12-07T00:01:14;99489.16;;;1.20;100.00
64713;BME280;51140;45.340;5.980;2022-12-07T00:03:42;99484.88;;;1.19;100.00
64713;BME280;51140;45.340;5.980;2022-12-07T00:06:09;99488.38;;;1.25;100.00
64713;BME280;51140;45.340;5.980;2022-12-07T00:08:35;99488.38;;;1.29;100.00
64713;BME280;51140;45.340;5.980;2022-12-07T00:11:06;99486.66;;;1.28;100.00
64713;BME280;51140;45.340;5.980;2022-12-07T00:13:33;99488.41;;;1.32;100.00
64713;BME280;51140;45.340;5.980;2022-12-07T00:16:10;99479.81;;;1.28;100.00
64713;BME280;51140;45.340;5.980;2022-12-07T00:18:36;99470.41;;;1.29;100.00
64713;BME280;51140;45.340;5.980;2022-12-07T00:21:07;99471.25;;;1.24;100.00
64713;BME280;51140;45.340;5.980;2022-12-07T00:23:34;99467.84;;;1.29;100.00
64713;BME280;51140;45.340;5.980;2022-12-07T00:26:07;99467.00;;;1.31;100.00
64713;BME280;51140;45.340;5.980;2022-12-07T00:28:33;99474.69;;;1.30;100.00
64713;BME280;51140;45.340;5.980;2022-12-07T00:31:10;99462.72;;;1.32;100.00
64713;BME280;51140;45.340;5.980;2022-12-07T00:33:36;99461.88;;;1.34;100.00
64713;BME280;51140;45.340;5.980;2022-12-07T00:36:03;99454.19;;;1.33;100.00
64713;BME280;51140;45.340;5.980;2022-12-07T00:38:31;99460.19;;;1.35;100.00
64713;BME280;51140;45.340;5.980;2022-12-07T00:40:58;99461.91;;;1.36;100.00
64713;BME280;51140;45.340;5.980;2022-12-07T00:43:24;99456.75;;;1.36;100.00
64713;BME280;51140;45.340;5.980;2022-12-07T00:45:49;99459.31;;;1.34;100.00
64713;BME280;51140;45.340;5.980;2022-12-07T00:48:15;99464.47;;;1.34;100.00
64713;BME280;51140;45.340;5.980;2022-12-07T00:50:40;99461.88;;;1.31;100.00
64713;BME280;51140;45.340;5.980;2022-12-07T00:53:06;99462.72;;;1.30;100.00
64713;BME280;51140;45.340;5.980;2022-12-07T00:55:35;99461.88;;;1.33;100.00
64713;BME280;51140;45.340;5.980;2022-12-07T00:58:00;99457.59;;;1.29;100.00
64713;BME280;51140;45.340;5.980;2022-12-07T01:00:26;99455.88;;;1.32;100.00
64713;BME280;51140;45.340;5.980;2022-12-07T01:02:52;99457.59;;;1.30;100.00
64713;BME280;51140;45.340;5.980;2022-12-07T01:05:17;99465.31;;;1.33;100.00
64713;BME280;51140;45.340;5.980;2022-12-07T01:07:43;99464.44;;;1.33;100.00
64713;BME280;51140;45.340;5.980;2022-12-07T01:10:08;99468.72;;;1.29;100.00
64713;BME280;51140;45.340;5.980;2022-12-07T01:12:34;99477.25;;;1.28;100.00
64713;BME280;51140;45.340;5.980;2022-12-07T01:14:59;99472.13;;;1.30;100.00
64713;BME280;51140;45.340;5.980;2022-12-07T01:17:25;99467.88;;;1.32;100.00
64713;BME280;51140;45.340;5.980;2022-12-07T01:19:50;99470.44;;;1.30;100.00
64713;BME280;51140;45.340;5.980;2022-12-07T01:22:15;99472.16;;;1.34;100.00
64713;BME280;51140;45.340;5.980;2022-12-07T01:24:41;99472.16;;;1.34;100.00
64713;BME280;51140;45.340;5.980;2022-12-07T01:27:06;99461.91;;;1.36;100.00
64713;BME280;51140;45.340;5.980;2022-12-07T01:29:32;99471.31;;;1.35;100.00
64713;BME280;51140;45.340;5.980;2022-12-07T01:31:57;99474.72;;;1.33;100.00
64713;BME280;51140;45.340;5.980;2022-12-07T01:34:22;99469.59;;;1.34;100.00
64713;BME280;51140;45.340;5.980;2022-12-07T01:36:48;99458.47;;;1.34;100.00
64713;BME280;51140;45.340;5.980;2022-12-07T01:39:13;99464.47;;;1.39;100.00
64713;BME280;51140;45.340;5.980;2022-12-07T01:41:40;99461.91;;;1.40;100.00
64713;BME280;51140;45.340;5.980;2022-12-07T01:46:54;99450.81;;;1.44;100.00
64713;BME280;51140;45.340;5.980;2022-12-07T01:51:52;99447.38;;;1.44;100.00
64713;BME280;51140;45.340;5.980;2022-12-07T01:54:22;99443.09;;;1.43;100.00
64713;BME280;51140;45.340;5.980;2022-12-07T01:56:51;99437.97;;;1.43;100.00
64713;BME280;51140;45.340;5.980;2022-12-07T01:59:20;99438.84;;;1.45;100.00
64713;BME280;51140;45.340;5.980;2022-12-07T02:01:46;99436.25;;;1.43;100.00
64713;BME280;51140;45.340;5.980;2022-12-07T02:04:12;99438.81;;;1.42;100.00
64713;BME280;51140;45.340;5.980;2022-12-07T02:06:37;99438.81;;;1.37;100.00
64713;BME280;51140;45.340;5.980;2022-12-07T02:09:04;99434.53;;;1.41;100.00
64713;BME280;51140;45.340;5.980;2022-12-07T02:11:29;99436.25;;;1.43;100.00
64713;BME280;51140;45.340;5.980;2022-12-07T02:13:55;99438.84;;;1.45;100.00
64713;BME280;51140;45.340;5.980;2022-12-07T02:16:32;99432.00;;;1.45;100.00
64713;BME280;51140;45.340;5.980;2022-12-07T02:21:50;99436.28;;;1.48;100.00
64713;BME280;51140;45.340;5.980;2022-12-07T02:30:12;99444.81;;;1.45;100.00
64713;BME280;51140;45.340;5.980;2022-12-07T02:35:23;99450.84;;;1.49;100.00
64713;BME280;51140;45.340;5.980;2022-12-07T02:43:02;99447.41;;;1.50;100.00
64713;BME280;51140;45.340;5.980;2022-12-07T02:45:30;99447.44;;;1.54;100.00
64713;BME280;51140;45.340;5.980;2022-12-07T02:47:58;99448.28;;;1.52;100.00
64713;BME280;51140;45.340;5.980;2022-12-07T02:50:26;99444.00;;;1.49;100.00
64713;BME280;51140;45.340;5.980;2022-12-07T02:52:51;99447.41;;;1.50;100.00
64713;BME280;51140;45.340;5.980;2022-12-07T02:55:19;99444.00;;;1.54;100.00
64713;BME280;51140;45.340;5.980;2022-12-07T03:00:52;99444.88;;;1.53;100.00
64713;BME280;51140;45.340;5.980;2022-12-07T03:03:20;99432.88;;;1.55;100.00
64713;BME280;51140;45.340;5.980;2022-12-07T03:08:44;99445.72;;;1.55;100.00
64713;BME280;51140;45.340;5.980;2022-12-07T03:11:15;99443.19;;;1.60;100.00
64713;BME280;51140;45.340;5.980;2022-12-07T03:16:28;99438.91;;;1.60;100.00
64713;BME280;51140;45.340;5.980;2022-12-07T03:19:02;99433.81;;;1.62;100.00
64713;BME280;51140;45.340;5.980;2022-12-07T03:21:37;99436.38;;;1.62;100.00
64713;BME280;51140;45.340;5.980;2022-12-07T03:24:09;99432.09;;;1.64;100.00
64713;BME280;51140;45.340;5.980;2022-12-07T03:26:41;99436.38;;;1.62;100.00
64713;BME280;51140;45.340;5.980;2022-12-07T03:29:20;99433.81;;;1.62;100.00
64713;BME280;51140;45.340;5.980;2022-12-07T03:31:55;99429.47;;;1.59;100.00
64713;BME280;51140;45.340;5.980;2022-12-07T03:34:26;99431.25;;;1.63;100.00
64713;BME280;51140;45.340;5.980;2022-12-07T03:42:05;99430.38;;;1.63;100.00
64713;BME280;51140;45.340;5.980;2022-12-07T03:44:33;99431.16;;;1.52;100.00
64713;BME280;51140;45.340;5.980;2022-12-07T03:47:24;99431.13;;;1.46;100.00
64713;BME280;51140;45.340;5.980;2022-12-07T03:49:57;99424.31;;;1.50;100.00
64713;BME280;51140;45.340;5.980;2022-12-07T03:52:33;99420.91;;;1.52;100.00
64713;BME280;51140;45.340;5.980;2022-12-07T03:55:19;99411.47;;;1.51;100.00
64713;BME280;51140;45.340;5.980;2022-12-07T03:57:50;99409.75;;;1.50;100.00
64713;BME280;51140;45.340;5.980;2022-12-07T04:00:18;99409.75;;;1.50;100.00
64713;BME280;51140;45.340;5.980;2022-12-07T04:02:44;99410.63;;;1.51;100.00
64713;BME280;51140;45.340;5.980;2022-12-07T04:05:10;99416.63;;;1.56;100.00
64713;BME280;51140;45.340;5.980;2022-12-07T04:07:36;99408.06;;;1.54;100.00
64713;BME280;51140;45.340;5.980;2022-12-07T04:10:02;99405.50;;;1.54;100.00
64713;BME280;51140;45.340;5.980;2022-12-07T04:12:27;99412.34;;;1.55;100.00
64713;BME280;51140;45.340;5.980;2022-12-07T04:14:53;99412.38;;;1.60;100.00
64713;BME280;51140;45.340;5.980;2022-12-07T04:17:18;99407.22;;;1.60;100.00
64713;BME280;51140;45.340;5.980;2022-12-07T04:19:44;99402.94;;;1.60;100.00
64713;BME280;51140;45.340;5.980;2022-12-07T04:22:09;99404.69;;;1.61;100.00
64713;BME280;51140;45.340;5.980;2022-12-07T04:24:34;99409.84;;;1.63;100.00
64713;BME280;51140;45.340;5.980;2022-12-07T04:27:00;99413.25;;;1.63;100.00
64713;BME280;51140;45.340;5.980;2022-12-07T04:29:26;99407.28;;;1.63;100.00
64713;BME280;51140;45.340;5.980;2022-12-07T04:31:52;99419.25;;;1.65;100.00
64713;BME280;51140;45.340;5.980;2022-12-07T04:34:18;99413.25;;;1.63;100.00
64713;BME280;51140;45.340;5.980;2022-12-07T04:36:44;99413.25;;;1.63;100.00
64713;BME280;51140;45.340;5.980;2022-12-07T04:39:19;99403.84;;;1.61;100.00
64713;BME280;51140;45.340;5.980;2022-12-07T04:41:45;99404.72;;;1.64;100.00
64713;BME280;51140;45.340;5.980;2022-12-07T04:44:11;99402.16;;;1.66;100.00
64713;BME280;51140;45.340;5.980;2022-12-07T04:46:39;99414.13;;;1.65;100.00
64713;BME280;51140;45.340;5.980;2022-12-07T04:49:04;99409.84;;;1.66;100.00
64713;BME280;51140;45.340;5.980;2022-12-07T04:51:30;99408.16;;;1.69;100.00
64713;BME280;51140;45.340;5.980;2022-12-07T04:53:56;99411.56;;;1.68;100.00
64713;BME280;51140;45.340;5.980;2022-12-07T04:56:22;99409.84;;;1.67;100.00
64713;BME280;51140;45.340;5.980;2022-12-07T04:58:48;99407.28;;;1.67;100.00
64713;BME280;51140;45.340;5.980;2022-12-07T05:01:16;99406.44;;;1.65;100.00
64713;BME280;51140;45.340;5.980;2022-12-07T05:03:42;99409.84;;;1.67;100.00
64713;BME280;51140;45.340;5.980;2022-12-07T05:06:08;99405.56;;;1.68;100.00
64713;BME280;51140;45.340;5.980;2022-12-07T05:08:34;99390.16;;;1.66;100.00
64713;BME280;51140;45.340;5.980;2022-12-07T05:11:01;99398.72;;;1.70;100.00
64713;BME280;51140;45.340;5.980;2022-12-07T05:13:27;99390.16;;;1.71;100.00
64713;BME280;51140;45.340;5.980;2022-12-07T05:15:53;99377.31;;;1.69;100.00
64713;BME280;51140;45.340;5.980;2022-12-07T05:18:18;99370.50;;;1.73;100.00
64713;BME280;51140;45.340;5.980;2022-12-07T05:20:44;99373.06;;;1.71;100.00
64713;BME280;51140;45.340;5.980;2022-12-07T05:23:10;99370.47;;;1.71;100.00
64713;BME280;51140;45.340;5.980;2022-12-07T05:25:35;99364.50;;;1.71;100.00
64713;BME280;51140;45.340;5.980;2022-12-07T05:28:01;99363.63;;;1.67;100.00
64713;BME280;51140;45.340;5.980;2022-12-07T05:30:27;99360.19;;;1.67;100.00
64713;BME280;51140;45.340;5.980;2022-12-07T05:32:52;99357.63;;;1.71;100.00
64713;BME280;51140;45.340;5.980;2022-12-07T05:35:18;99359.34;;;1.71;100.00
64713;BME280;51140;45.340;5.980;2022-12-07T05:37:44;99354.19;;;1.63;100.00
64713;BME280;51140;45.340;5.980;2022-12-07T05:40:10;99354.19;;;1.65;100.00
64713;BME280;51140;45.340;5.980;2022-12-07T05:42:35;99363.59;;;1.63;100.00
64713;BME280;51140;45.340;5.980;2022-12-07T05:45:01;99359.34;;;1.68;100.00
64713;BME280;51140;45.340;5.980;2022-12-07T05:47:26;99361.06;;;1.69;100.00
64713;BME280;51140;45.340;5.980;2022-12-07T05:49:52;99367.03;;;1.65;100.00
64713;BME280;51140;45.340;5.980;2022-12-07T05:52:17;99366.19;;;1.63;100.00
64713;BME280;51140;45.340;5.980;2022-12-07T05:54:43;99363.59;;;1.61;100.00
64713;BME280;51140;45.340;5.980;2022-12-07T05:57:08;99365.28;;;1.56;100.00
64713;BME280;51140;45.340;5.980;2022-12-07T05:59:34;99366.97;;;1.55;100.00
64713;BME280;51140;45.340;5.980;2022-12-07T06:02:07;99372.94;;;1.48;100.00
64713;BME280;51140;45.340;5.980;2022-12-07T06:04:36;99372.97;;;1.51;100.00
64713;BME280;51140;45.340;5.980;2022-12-07T06:07:02;99378.97;;;1.58;100.00
64713;BME280;51140;45.340;5.980;2022-12-07T06:09:28;99384.16;;;1.61;100.00
64713;BME280;51140;45.340;5.980;2022-12-07T06:11:55;99376.44;;;1.61;100.00
64713;BME280;51140;45.340;5.980;2022-12-07T06:14:40;99376.44;;;1.63;100.00
64713;BME280;51140;45.340;5.980;2022-12-07T06:17:05;99371.31;;;1.66;100.00
64713;BME280;51140;45.340;5.980;2022-12-07T06:19:31;99367.91;;;1.67;100.00
64713;BME280;51140;45.340;5.980;2022-12-07T06:21:57;99369.63;;;1.66;100.00
64713;BME280;51140;45.340;5.980;2022-12-07T06:24:22;99372.19;;;1.66;100.00
64713;BME280;51140;45.340;5.980;2022-12-07T06:26:48;99371.34;;;1.70;100.00
64713;BME280;51140;45.340;5.980;2022-12-07T06:29:13;99367.91;;;1.67;100.00
64713;BME280;51140;45.340;5.980;2022-12-07T06:31:39;99362.75;;;1.64;100.00
64713;BME280;51140;45.340;5.980;2022-12-07T06:34:14;99362.75;;;1.61;100.00
64713;BME280;51140;45.340;5.980;2022-12-07T06:36:40;99360.13;;;1.57;100.00
64713;BME280;51140;45.340;5.980;2022-12-07T06:39:06;99362.69;;;1.56;100.00
64713;BME280;51140;45.340;5.980;2022-12-07T06:41:35;99367.00;;;1.60;100.00
64713;BME280;51140;45.340;5.980;2022-12-07T06:44:01;99367.88;;;1.61;100.00
64713;BME280;51140;45.340;5.980;2022-12-07T06:46:26;99356.72;;;1.60;100.00
64713;BME280;51140;45.340;5.980;2022-12-07T06:48:51;99367.03;;;1.63;100.00
64713;BME280;51140;45.340;5.980;2022-12-07T06:51:17;99366.97;;;1.54;100.00
64713;BME280;51140;45.340;5.980;2022-12-07T06:53:42;99371.28;;;1.58;100.00
64713;BME280;51140;45.340;5.980;2022-12-07T06:56:07;99371.25;;;1.53;100.00
64713;BME280;51140;45.340;5.980;2022-12-07T06:58:33;99367.84;;;1.54;100.00
64713;BME280;51140;45.340;5.980;2022-12-07T07:00:59;99368.69;;;1.55;100.00
64713;BME280;51140;45.340;5.980;2022-12-07T07:03:24;99361.03;;;1.63;100.00
64713;BME280;51140;45.340;5.980;2022-12-07T07:05:49;99357.63;;;1.67;100.00
64713;BME280;51140;45.340;5.980;2022-12-07T07:08:15;99367.03;;;1.63;100.00
64713;BME280;51140;45.340;5.980;2022-12-07T07:10:40;99370.47;;;1.62;100.00
64713;BME280;51140;45.340;5.980;2022-12-07T07:13:06;99373.03;;;1.64;100.00
64713;BME280;51140;45.340;5.980;2022-12-07T07:15:33;99366.97;;;1.57;100.00
64713;BME280;51140;45.340;5.980;2022-12-07T07:17:58;99364.41;;;1.57;100.00
64713;BME280;51140;45.340;5.980;2022-12-07T07:20:24;99367.84;;;1.56;100.00
64713;BME280;51140;45.340;5.980;2022-12-07T07:22:49;99362.72;;;1.57;100.00
64713;BME280;51140;45.340;5.980;2022-12-07T07:25:15;99368.75;;;1.63;100.00
64713;BME280;51140;45.340;5.980;2022-12-07T07:27:41;99372.13;;;1.57;100.00
64713;BME280;51140;45.340;5.980;2022-12-07T07:30:07;99369.53;;;1.51;100.00
64713;BME280;51140;45.340;5.980;2022-12-07T07:32:33;99372.13;;;1.54;100.00
64713;BME280;51140;45.340;5.980;2022-12-07T07:34:59;99372.13;;;1.54;100.00
64713;BME280;51140;45.340;5.980;2022-12-07T07:37:25;99366.13;;;1.53;100.00
64713;BME280;51140;45.340;5.980;2022-12-07T07:39:50;99374.66;;;1.51;100.00
64713;BME280;51140;45.340;5.980;2022-12-07T07:42:16;99369.53;;;1.54;100.00
64713;BME280;51140;45.340;5.980;2022-12-07T07:44:41;99379.84;;;1.60;100.00
64713;BME280;51140;45.340;5.980;2022-12-07T07:47:07;99369.59;;;1.65;100.00
64713;BME280;51140;45.340;5.980;2022-12-07T07:49:32;99377.34;;;1.72;100.00
64713;BME280;51140;45.340;5.980;2022-12-07T07:51:57;99376.47;;;1.75;100.00
64713;BME280;51140;45.340;5.980;2022-12-07T07:54:23;99372.19;;;1.75;100.00
64713;BME280;51140;45.340;5.980;2022-12-07T07:56:48;99379.06;;;1.75;100.00
64713;BME280;51140;45.340;5.980;2022-12-07T07:59:14;99380.78;;;1.79;100.00
64713;BME280;51140;45.340;5.980;2022-12-07T08:01:40;99383.34;;;1.79;100.00
64713;BME280;51140;45.340;5.980;2022-12-07T08:04:05;99383.34;;;1.80;100.00
64713;BME280;51140;45.340;5.980;2022-12-07T08:06:30;99390.22;;;1.87;100.00
64713;BME280;51140;45.340;5.980;2022-12-07T08:08:56;99389.34;;;1.85;100.00
64713;BME280;51140;45.340;5.980;2022-12-07T08:11:23;99399.63;;;1.88;100.00
64713;BME280;51140;45.340;5.980;2022-12-07T08:13:48;99392.78;;;1.91;100.00
64713;BME280;51140;45.340;5.980;2022-12-07T08:16:14;99398.78;;;1.91;100.00
64713;BME280;51140;45.340;5.980;2022-12-07T08:18:41;99411.63;;;1.93;100.00
64713;BME280;51140;45.340;5.980;2022-12-07T08:21:08;99411.63;;;1.93;100.00
64713;BME280;51140;45.340;5.980;2022-12-07T08:23:34;99409.94;;;1.95;100.00
64713;BME280;51140;45.340;5.980;2022-12-07T08:26:01;99417.66;;;1.96;100.00
64713;BME280;51140;45.340;5.980;2022-12-07T08:28:27;99414.22;;;1.99;100.00
64713;BME280;51140;45.340;5.980;2022-12-07T08:30:59;99417.66;;;1.98;100.00
64713;BME280;51140;45.340;5.980;2022-12-07T08:33:24;99413.38;;;2.00;100.00
64713;BME280;51140;45.340;5.980;2022-12-07T08:35:50;99424.53;;;2.02;100.00
64713;BME280;51140;45.340;5.980;2022-12-07T08:38:15;99424.50;;;1.97;100.00
64713;BME280;51140;45.340;5.980;2022-12-07T08:40:40;99426.25;;;2.01;100.00
64713;BME280;51140;45.340;5.980;2022-12-07T08:43:06;99433.09;;;2.02;100.00
64713;BME280;51140;45.340;5.980;2022-12-07T08:45:31;99434.84;;;2.05;100.00
64713;BME280;51140;45.340;5.980;2022-12-07T08:48:11;99423.69;;;2.06;100.00
64713;BME280;51140;45.340;5.980;2022-12-07T08:50:39;99431.41;;;2.12;100.00
64713;BME280;51140;45.340;5.980;2022-12-07T08:53:05;99442.56;;;2.11;100.00
64713;BME280;51140;45.340;5.980;2022-12-07T08:55:33;99436.56;;;2.18;100.00
64713;BME280;51140;45.340;5.980;2022-12-07T08:57:59;99438.28;;;2.20;100.00
64713;BME280;51140;45.340;5.980;2022-12-07T09:00:26;99438.28;;;2.22;100.00
64713;BME280;51140;45.340;5.980;2022-12-07T09:02:53;99448.59;;;2.30;100.00
64713;BME280;51140;45.340;5.980;2022-12-07T09:05:18;99449.44;;;2.36;100.00
64713;BME280;51140;45.340;5.980;2022-12-07T09:07:47;99452.06;;;2.42;100.00
64713;BME280;51140;45.340;5.980;2022-12-07T09:10:13;99457.22;;;2.41;100.00
64713;BME280;51140;45.340;5.980;2022-12-07T09:12:39;99452.91;;;2.41;100.00
64713;BME280;51140;45.340;5.980;2022-12-07T09:15:05;99458.06;;;2.44;100.00
64713;BME280;51140;45.340;5.980;2022-12-07T09:17:32;99447.78;;;2.41;100.00
64713;BME280;51140;45.340;5.980;2022-12-07T09:19:58;99450.31;;;2.38;100.00
64713;BME280;51140;45.340;5.980;2022-12-07T09:22:23;99441.78;;;2.41;100.00
64713;BME280;51140;45.340;5.980;2022-12-07T09:24:48;99439.22;;;2.42;100.00
64713;BME280;51140;45.340;5.980;2022-12-07T09:27:14;99449.50;;;2.42;100.00
64713;BME280;51140;45.340;5.980;2022-12-07T09:29:40;99446.91;;;2.44;100.00
64713;BME280;51140;45.340;5.980;2022-12-07T09:32:06;99452.06;;;2.50;100.00
64713;BME280;51140;45.340;5.980;2022-12-07T09:34:31;99453.78;;;2.53;100.00
64713;BME280;51140;45.340;5.980;2022-12-07T09:36:57;99452.94;;;2.47;100.00
64713;BME280;51140;45.340;5.980;2022-12-07T09:39:23;99445.22;;;2.46;100.00
64713;BME280;51140;45.340;5.980;2022-12-07T09:41:48;99452.06;;;2.41;100.00
64713;BME280;51140;45.340;5.980;2022-12-07T09:44:23;99448.59;;;2.36;100.00
64713;BME280;51140;45.340;5.980;2022-12-07T09:46:49;99451.16;;;2.37;100.00
64713;BME280;51140;45.340;5.980;2022-12-07T09:49:28;99449.50;;;2.47;100.00
64713;BME280;51140;45.340;5.980;2022-12-07T09:54:29;99448.66;;;2.57;100.00
64713;BME280;51140;45.340;5.980;2022-12-07T09:56:54;99455.50;;;2.58;100.00
64713;BME280;51140;45.340;5.980;2022-12-07T09:59:20;99456.38;;;2.56;100.00
64713;BME280;51140;45.340;5.980;2022-12-07T10:01:49;99453.78;;;2.57;100.00
64713;BME280;51140;45.340;5.980;2022-12-07T10:04:22;99441.78;;;2.67;100.00
64713;BME280;51140;45.340;5.980;2022-12-07T10:06:49;99440.94;;;2.71;100.00
64713;BME280;51140;45.340;5.980;2022-12-07T10:09:17;99434.06;;;2.67;100.00
64713;BME280;51140;45.340;5.980;2022-12-07T10:12:09;99419.50;;;2.66;100.00
64713;BME280;51140;45.340;5.980;2022-12-07T10:14:52;99417.78;;;2.69;100.00
64713;BME280;51140;45.340;5.980;2022-12-07T10:17:38;99410.06;;;2.74;100.00
64713;BME280;51140;45.340;5.980;2022-12-07T10:20:26;99398.06;;;2.70;100.00
64713;BME280;51140;45.340;5.980;2022-12-07T10:23:03;99392.06;;;2.65;100.00
64713;BME280;51140;45.340;5.980;2022-12-07T10:25:37;99392.91;;;2.64;100.00
64713;BME280;51140;45.340;5.980;2022-12-07T10:28:18;99394.63;;;2.72;100.00
64713;BME280;51140;45.340;5.980;2022-12-07T10:30:57;99388.63;;;2.82;100.00
64713;BME280;51140;45.340;5.980;2022-12-07T10:33:37;99382.63;;;2.91;100.00
64713;BME280;51140;45.340;5.980;2022-12-07T10:36:38;99365.47;;;2.84;100.00
64713;BME280;51140;45.340;5.980;2022-12-07T10:39:13;99362.03;;;2.88;100.00
64713;BME280;51140;45.340;5.980;2022-12-07T10:41:59;99357.72;;;2.96;100.00
64713;BME280;51140;45.340;5.980;2022-12-07T10:44:33;99344.84;;;2.96;100.00
64713;BME280;51140;45.340;5.980;2022-12-07T10:56:09;99309.56;;;3.30;100.00
64713;BME280;51140;45.340;5.980;2022-12-07T10:59:00;99299.25;;;3.32;100.00
64713;BME280;51140;45.340;5.980;2022-12-07T11:01:35;99297.53;;;3.35;100.00
64713;BME280;51140;45.340;5.980;2022-12-07T11:04:18;99288.97;;;3.32;100.00
64713;BME280;51140;45.340;5.980;2022-12-07T11:06:57;99283.78;;;3.38;100.00
64713;BME280;51140;45.340;5.980;2022-12-07T11:09:46;99275.97;;;3.50;100.00
64713;BME280;51140;45.340;5.980;2022-12-07T11:15:22;99245.88;;;3.58;100.00
64713;BME280;51140;45.340;5.980;2022-12-07T11:34:15;99185.78;;;3.55;100.00
64713;BME280;51140;45.340;5.980;2022-12-07T11:36:48;99174.66;;;3.48;100.00
64713;BME280;51140;45.340;5.980;2022-12-07T11:41:56;99152.28;;;3.56;100.00
64713;BME280;51140;45.340;5.980;2022-12-07T11:44:50;99133.44;;;3.50;100.00
64713;BME280;51140;45.340;5.980;2022-12-07T11:47:48;99114.63;;;3.40;100.00
64713;BME280;51140;45.340;5.980;2022-12-07T11:50:33;99105.13;;;3.48;100.00
64713;BME280;51140;45.340;5.980;2022-12-07T11:53:25;99096.56;;;3.44;100.00
64713;BME280;51140;45.340;5.980;2022-12-07T11:55:59;99080.22;;;3.47;100.00
64713;BME280;51140;45.340;5.980;2022-12-07T12:03:45;99034.84;;;3.35;100.00
64713;BME280;51140;45.340;5.980;2022-12-07T12:06:11;99033.16;;;3.33;100.00
64713;BME280;51140;45.340;5.980;2022-12-07T12:08:57;99018.53;;;3.35;100.00
64713;BME280;51140;45.340;5.980;2022-12-07T12:19:58;99014.22;;;3.37;100.00
64713;BME280;51140;45.340;5.980;2022-12-07T12:22:34;98996.28;;;3.28;100.00
64713;BME280;51140;45.340;5.980;2022-12-07T12:25:04;99001.44;;;3.28;100.00
64713;BME280;51140;45.340;5.980;2022-12-07T12:27:32;99010.81;;;3.35;100.00
64713;BME280;51140;45.340;5.980;2022-12-07T12:30:02;99017.69;;;3.34;100.00
64713;BME280;51140;45.340;5.980;2022-12-07T12:32:38;99010.84;;;3.32;100.00
64713;BME280;51140;45.340;5.980;2022-12-07T12:35:20;99027.91;;;3.43;100.00
64713;BME280;51140;45.340;5.980;2022-12-07T12:37:47;99023.63;;;3.41;100.00
64713;BME280;51140;45.340;5.980;2022-12-07T12:45:29;99036.56;;;3.33;100.00
64713;BME280;51140;45.340;5.980;2022-12-07T12:48:27;99026.19;;;3.42;100.00
64713;BME280;51140;45.340;5.980;2022-12-07T12:54:12;99034.03;;;3.30;100.00
64713;BME280;51140;45.340;5.980;2022-12-07T12:59:55;99041.75;;;3.32;100.00
64713;BME280;51140;45.340;5.980;2022-12-07T13:04:58;99047.75;;;3.31;100.00
64713;BME280;51140;45.340;5.980;2022-12-07T13:15:36;99030.66;;;3.24;100.00
64713;BME280;51140;45.340;5.980;2022-12-07T13:34:03;99036.59;;;3.32;100.00
64713;BME280;51140;45.340;5.980;2022-12-07T13:36:38;99038.38;;;3.24;100.00
64713;BME280;51140;45.340;5.980;2022-12-07T13:39:20;99046.06;;;3.30;100.00
64713;BME280;51140;45.340;5.980;2022-12-07T13:42:29;99048.63;;;3.28;100.00
64713;BME280;51140;45.340;5.980;2022-12-07T13:44:57;99051.19;;;3.30;100.00
64713;BME280;51140;45.340;5.980;2022-12-07T13:50:02;99045.31;;;3.12;100.00
64713;BME280;51140;45.340;5.980;2022-12-07T13:52:29;99044.44;;;3.13;100.00
64713;BME280;51140;45.340;5.980;2022-12-07T13:57:31;99051.28;;;3.16;100.00
64713;BME280;51140;45.340;5.980;2022-12-07T14:00:00;99044.44;;;3.15;100.00
64713;BME280;51140;45.340;5.980;2022-12-07T14:02:28;99045.28;;;3.15;100.00
64713;BME280;51140;45.340;5.980;2022-12-07T14:05:14;99047.06;;;3.07;100.00
64713;BME280;51140;45.340;5.980;2022-12-07T14:12:59;99057.47;;;2.94;100.00
64713;BME280;51140;45.340;5.980;2022-12-07T14:15:30;99057.47;;;2.92;100.00
64713;BME280;51140;45.340;5.980;2022-12-07T14:17:58;99049.75;;;2.92;100.00
64713;BME280;51140;45.340;5.980;2022-12-07T14:20:38;99056.63;;;2.90;100.00
64713;BME280;51140;45.340;5.980;2022-12-07T14:23:05;99057.47;;;2.94;100.00
64713;BME280;51140;45.340;5.980;2022-12-07T14:25:51;99066.09;;;2.88;100.00
64713;BME280;51140;45.340;5.980;2022-12-07T14:28:31;99072.09;;;2.87;100.00
64713;BME280;51140;45.340;5.980;2022-12-07T14:30:58;99080.66;;;2.88;100.00
64713;BME280;51140;45.340;5.980;2022-12-07T14:33:25;99081.56;;;2.83;100.00
64713;BME280;51140;45.340;5.980;2022-12-07T14:35:50;99092.69;;;2.84;100.00
64713;BME280;51140;45.340;5.980;2022-12-07T14:38:20;99088.41;;;2.85;100.00
64713;BME280;51140;45.340;5.980;2022-12-07T14:40:45;99091.00;;;2.83;100.00
64713;BME280;51140;45.340;5.980;2022-12-07T14:43:12;99095.28;;;2.81;100.00
64713;BME280;51140;45.340;5.980;2022-12-07T14:45:39;99093.59;;;2.75;100.00
64713;BME280;51140;45.340;5.980;2022-12-07T14:48:05;99100.44;;;2.73;100.00
64713;BME280;51140;45.340;5.980;2022-12-07T14:50:36;99106.47;;;2.71;100.00
64713;BME280;51140;45.340;5.980;2022-12-07T14:53:09;99107.31;;;2.73;100.00
64713;BME280;51140;45.340;5.980;2022-12-07T14:55:35;99112.47;;;2.73;100.00
64713;BME280;51140;45.340;5.980;2022-12-07T14:58:01;99106.47;;;2.69;100.00
64713;BME280;51140;45.340;5.980;2022-12-07T15:00:28;99101.34;;;2.68;100.00
64713;BME280;51140;45.340;5.980;2022-12-07T15:02:54;99100.50;;;2.66;100.00
64713;BME280;51140;45.340;5.980;2022-12-07T15:05:20;99092.78;;;2.66;100.00
64713;BME280;51140;45.340;5.980;2022-12-07T15:07:47;99100.47;;;2.69;100.00
64713;BME280;51140;45.340;5.980;2022-12-07T15:10:28;99094.50;;;2.67;100.00
64713;BME280;51140;45.340;5.980;2022-12-07T15:12:56;99093.66;;;2.65;100.00
64713;BME280;51140;45.340;5.980;2022-12-07T15:15:41;99097.97;;;2.60;100.00
64713;BME280;51140;45.340;5.980;2022-12-07T15:18:07;99099.72;;;2.51;100.00
64713;BME280;51140;45.340;5.980;2022-12-07T15:20:32;99100.59;;;2.49;100.00
64713;BME280;51140;45.340;5.980;2022-12-07T15:22:58;99109.16;;;2.49;100.00